Main page
METAR-TAF:

METAR-TAF

Airports :

Mykonos International Airport

Mykonos, Greece

latitude: 37-26-09N, longitude: 025-20-45E, elevation: 123 m

Current weather observation

The report was made 22 minutes ago, at 17:20 UTC
Wind 16 kt from the North with gusts up to 26 kt
Temperature 26°C
Humidity 58%
Pressure 1010 hPa
Visibility 10 km or more
Few clouds at a height of 2000 ft

METAR: LGMK 171720Z 35016G26KT 9999 FEW020 26/17 Q1010

Time: 20:42 (17:42 UTC)

Forecast

The report was made 42 minutes ago, at 17:00 UTC
Forecast valid from 17 at 18 UTC to 18 at 03 UTC
Wind 20 kt from the North
Visibility 10 km or more
Few clouds at a height of 2000 ft

TAF: LGMK 171700Z 1718/1803 35020KT 9999 FEW020

Weather observations and forecasts of more than 4000 airports (METAR and TAF reports).

The available stations are represented by yellow and red dots on the map.

Hover mouse over dot to see the name of the station.

Then click to see weather observations and forecasts.

To change the map : click on the green buttons with a black cross to zoom in, on the green button with a dash to zoom out, or on the green arrows for adjacent maps.


METAR-TAF: